sensor_id;sensor_type;location;lat;lon;timestamp;temperature;humidity
18611;DHT22;9435;52.122;5.502;2023-04-30T00:02:10;7.30;99.90
18611;DHT22;9435;52.122;5.502;2023-04-30T00:04:38;7.30;99.90
18611;DHT22;9435;52.122;5.502;2023-04-30T00:07:05;7.30;99.90
18611;DHT22;9435;52.122;5.502;2023-04-30T00:09:33;7.20;99.90
18611;DHT22;9435;52.122;5.502;2023-04-30T00:12:00;7.20;99.90
18611;DHT22;9435;52.122;5.502;2023-04-30T00:14:27;7.20;99.90
18611;DHT22;9435;52.122;5.502;2023-04-30T00:16:55;7.20;99.90
18611;DHT22;9435;52.122;5.502;2023-04-30T00:19:22;7.20;99.90
18611;DHT22;9435;52.122;5.502;2023-04-30T00:21:49;7.10;99.90
18611;DHT22;9435;52.122;5.502;2023-04-30T00:24:16;7.10;99.90
18611;DHT22;9435;52.122;5.502;2023-04-30T00:26:43;7.00;99.90
18611;DHT22;9435;52.122;5.502;2023-04-30T00:29:10;7.00;99.90
18611;DHT22;9435;52.122;5.502;2023-04-30T00:31:38;7.00;99.90
18611;DHT22;9435;52.122;5.502;2023-04-30T00:34:06;7.00;99.90
18611;DHT22;9435;52.122;5.502;2023-04-30T00:36:33;7.00;99.90
18611;DHT22;9435;52.122;5.502;2023-04-30T00:39:00;6.90;99.90
18611;DHT22;9435;52.122;5.502;2023-04-30T06:09:28;7.30;99.90
18611;DHT22;9435;52.122;5.502;2023-04-30T06:11:55;7.60;99.90
18611;DHT22;9435;52.122;5.502;2023-04-30T06:14:22;7.80;99.90
18611;DHT22;9435;52.122;5.502;2023-04-30T06:16:49;8.00;99.90
18611;DHT22;9435;52.122;5.502;2023-04-30T06:19:16;8.20;99.90
18611;DHT22;9435;52.122;5.502;2023-04-30T06:21:43;8.50;99.90
18611;DHT22;9435;52.122;5.502;2023-04-30T06:24:11;8.60;99.90
18611;DHT22;9435;52.122;5.502;2023-04-30T06:26:39;8.80;99.90
18611;DHT22;9435;52.122;5.502;2023-04-30T06:29:06;8.90;99.90
18611;DHT22;9435;52.122;5.502;2023-04-30T06:31:33;9.20;99.90
18611;DHT22;9435;52.122;5.502;2023-04-30T06:34:00;8.90;99.90
18611;DHT22;9435;52.122;5.502;2023-04-30T06:36:27;8.90;99.90
18611;DHT22;9435;52.122;5.502;2023-04-30T06:38:54;9.20;99.90
18611;DHT22;9435;52.122;5.502;2023-04-30T06:41:21;9.30;99.90
18611;DHT22;9435;52.122;5.502;2023-04-30T06:43:49;9.50;99.90
18611;DHT22;9435;52.122;5.502;2023-04-30T06:46:16;9.70;99.90
18611;DHT22;9435;52.122;5.502;2023-04-30T06:48:43;9.50;99.90
18611;DHT22;9435;52.122;5.502;2023-04-30T06:51:10;9.80;99.90
18611;DHT22;9435;52.122;5.502;2023-04-30T06:53:37;10.30;99.90
18611;DHT22;9435;52.122;5.502;2023-04-30T06:56:06;10.60;99.90
18611;DHT22;9435;52.122;5.502;2023-04-30T06:58:34;10.60;99.90
18611;DHT22;9435;52.122;5.502;2023-04-30T07:01:02;10.60;99.90
18611;DHT22;9435;52.122;5.502;2023-04-30T07:03:30;10.70;99.90
18611;DHT22;9435;52.122;5.502;2023-04-30T07:06:01;11.10;99.90
18611;DHT22;9435;52.122;5.502;2023-04-30T07:08:28;10.90;99.90
18611;DHT22;9435;52.122;5.502;2023-04-30T07:10:55;10.70;99.90
18611;DHT22;9435;52.122;5.502;2023-04-30T07:13:22;11.10;99.90
18611;DHT22;9435;52.122;5.502;2023-04-30T07:15:49;11.00;99.90
18611;DHT22;9435;52.122;5.502;2023-04-30T07:18:18;11.00;99.90
18611;DHT22;9435;52.122;5.502;2023-04-30T07:20:45;10.90;99.90
18611;DHT22;9435;52.122;5.502;2023-04-30T07:23:12;11.30;99.90
18611;DHT22;9435;52.122;5.502;2023-04-30T07:25:39;11.00;99.90
18611;DHT22;9435;52.122;5.502;2023-04-30T07:28:06;10.90;99.90
18611;DHT22;9435;52.122;5.502;2023-04-30T07:30:33;10.90;99.90
18611;DHT22;9435;52.122;5.502;2023-04-30T07:33:00;11.40;99.90
18611;DHT22;9435;52.122;5.502;2023-04-30T07:35:29;11.40;99.90
18611;DHT22;9435;52.122;5.502;2023-04-30T07:37:56;11.90;99.90
18611;DHT22;9435;52.122;5.502;2023-04-30T07:40:23;12.20;99.90
18611;DHT22;9435;52.122;5.502;2023-04-30T07:42:50;11.80;99.90
18611;DHT22;9435;52.122;5.502;2023-04-30T07:45:17;11.80;99.90
18611;DHT22;9435;52.122;5.502;2023-04-30T07:47:44;12.30;99.90
18611;DHT22;9435;52.122;5.502;2023-04-30T07:50:12;12.70;99.90
18611;DHT22;9435;52.122;5.502;2023-04-30T07:52:41;13.00;99.90
18611;DHT22;9435;52.122;5.502;2023-04-30T07:55:08;12.30;99.90
18611;DHT22;9435;52.122;5.502;2023-04-30T07:57:35;12.90;99.90
18611;DHT22;9435;52.122;5.502;2023-04-30T08:00:03;13.30;99.90
18611;DHT22;9435;52.122;5.502;2023-04-30T08:02:30;12.60;99.90
18611;DHT22;9435;52.122;5.502;2023-04-30T08:04:57;12.50;99.90
18611;DHT22;9435;52.122;5.502;2023-04-30T08:07:24;12.50;99.90
18611;DHT22;9435;52.122;5.502;2023-04-30T08:09:53;12.20;99.90
18611;DHT22;9435;52.122;5.502;2023-04-30T08:12:20;12.70;99.90
18611;DHT22;9435;52.122;5.502;2023-04-30T08:14:47;12.80;99.90
18611;DHT22;9435;52.122;5.502;2023-04-30T08:17:14;13.00;99.90
18611;DHT22;9435;52.122;5.502;2023-04-30T08:19:41;13.40;99.90
18611;DHT22;9435;52.122;5.502;2023-04-30T08:22:08;13.50;99.90
18611;DHT22;9435;52.122;5.502;2023-04-30T08:24:36;14.00;99.90
18611;DHT22;9435;52.122;5.502;2023-04-30T08:27:04;13.90;99.90
18611;DHT22;9435;52.122;5.502;2023-04-30T08:29:31;13.90;99.90
18611;DHT22;9435;52.122;5.502;2023-04-30T08:32:01;13.70;99.90
18611;DHT22;9435;52.122;5.502;2023-04-30T08:34:28;13.30;99.90
18611;DHT22;9435;52.122;5.502;2023-04-30T08:36:55;13.30;99.90
18611;DHT22;9435;52.122;5.502;2023-04-30T08:39:24;13.20;99.90
18611;DHT22;9435;52.122;5.502;2023-04-30T08:41:54;13.90;99.90
18611;DHT22;9435;52.122;5.502;2023-04-30T08:44:23;14.10;99.90
18611;DHT22;9435;52.122;5.502;2023-04-30T08:46:53;14.00;99.90
18611;DHT22;9435;52.122;5.502;2023-04-30T08:49:21;13.80;99.90
18611;DHT22;9435;52.122;5.502;2023-04-30T08:51:48;14.20;99.90
18611;DHT22;9435;52.122;5.502;2023-04-30T08:54:17;14.50;99.90
18611;DHT22;9435;52.122;5.502;2023-04-30T08:56:44;14.90;99.90
18611;DHT22;9435;52.122;5.502;2023-04-30T08:59:12;15.20;99.90
18611;DHT22;9435;52.122;5.502;2023-04-30T09:01:40;15.40;99.90
18611;DHT22;9435;52.122;5.502;2023-04-30T09:04:07;15.50;99.90
18611;DHT22;9435;52.122;5.502;2023-04-30T09:06:34;15.80;99.90
18611;DHT22;9435;52.122;5.502;2023-04-30T09:09:08;15.30;99.90
18611;DHT22;9435;52.122;5.502;2023-04-30T09:11:36;14.60;99.90
18611;DHT22;9435;52.122;5.502;2023-04-30T09:14:03;14.80;99.90
18611;DHT22;9435;52.122;5.502;2023-04-30T09:16:46;15.40;99.90
18611;DHT22;9435;52.122;5.502;2023-04-30T09:19:27;15.60;99.90
18611;DHT22;9435;52.122;5.502;2023-04-30T09:21:54;14.90;99.90
18611;DHT22;9435;52.122;5.502;2023-04-30T09:24:21;14.60;99.90
18611;DHT22;9435;52.122;5.502;2023-04-30T09:26:49;15.40;99.90
18611;DHT22;9435;52.122;5.502;2023-04-30T09:29:16;15.70;99.90
18611;DHT22;9435;52.122;5.502;2023-04-30T09:31:46;15.60;99.90
18611;DHT22;9435;52.122;5.502;2023-04-30T09:34:13;15.10;99.90
18611;DHT22;9435;52.122;5.502;2023-04-30T09:36:51;14.90;99.90
18611;DHT22;9435;52.122;5.502;2023-04-30T09:39:19;14.90;99.90
18611;DHT22;9435;52.122;5.502;2023-04-30T09:41:46;14.60;99.90
18611;DHT22;9435;52.122;5.502;2023-04-30T09:44:29;14.70;99.90
18611;DHT22;9435;52.122;5.502;2023-04-30T09:46:57;15.20;99.90
18611;DHT22;9435;52.122;5.502;2023-04-30T09:49:24;14.90;99.90
18611;DHT22;9435;52.122;5.502;2023-04-30T09:51:55;15.30;99.90
18611;DHT22;9435;52.122;5.502;2023-04-30T09:54:24;15.70;99.90
18611;DHT22;9435;52.122;5.502;2023-04-30T09:56:53;15.70;99.90
18611;DHT22;9435;52.122;5.502;2023-04-30T09:59:21;15.20;99.90
18611;DHT22;9435;52.122;5.502;2023-04-30T10:01:50;14.80;99.90
18611;DHT22;9435;52.122;5.502;2023-04-30T10:04:20;15.60;99.90
18611;DHT22;9435;52.122;5.502;2023-04-30T10:06:49;15.60;99.90
18611;DHT22;9435;52.122;5.502;2023-04-30T10:09:16;16.10;99.90
18611;DHT22;9435;52.122;5.502;2023-04-30T10:11:44;16.60;99.90
18611;DHT22;9435;52.122;5.502;2023-04-30T10:14:12;15.80;99.90
18611;DHT22;9435;52.122;5.502;2023-04-30T10:16:44;15.80;99.90
18611;DHT22;9435;52.122;5.502;2023-04-30T10:19:15;15.70;99.90
18611;DHT22;9435;52.122;5.502;2023-04-30T10:21:46;15.80;99.90
18611;DHT22;9435;52.122;5.502;2023-04-30T10:24:14;16.10;99.90
18611;DHT22;9435;52.122;5.502;2023-04-30T10:26:44;16.50;99.90
18611;DHT22;9435;52.122;5.502;2023-04-30T10:29:12;16.30;99.90
18611;DHT22;9435;52.122;5.502;2023-04-30T10:31:40;16.80;99.90
18611;DHT22;9435;52.122;5.502;2023-04-30T10:34:16;16.30;99.90
18611;DHT22;9435;52.122;5.502;2023-04-30T10:36:47;16.40;99.90
18611;DHT22;9435;52.122;5.502;2023-04-30T10:39:17;16.50;99.90
18611;DHT22;9435;52.122;5.502;2023-04-30T10:41:46;16.20;99.90
18611;DHT22;9435;52.122;5.502;2023-04-30T10:44:13;15.90;99.90
18611;DHT22;9435;52.122;5.502;2023-04-30T10:46:41;16.30;99.90
18611;DHT22;9435;52.122;5.502;2023-04-30T10:49:11;16.90;99.90
18611;DHT22;9435;52.122;5.502;2023-04-30T10:51:48;16.30;99.90
18611;DHT22;9435;52.122;5.502;2023-04-30T10:54:24;16.10;99.90
18611;DHT22;9435;52.122;5.502;2023-04-30T10:56:51;16.30;99.90
18611;DHT22;9435;52.122;5.502;2023-04-30T10:59:18;16.40;99.90
18611;DHT22;9435;52.122;5.502;2023-04-30T11:01:56;16.50;99.90
18611;DHT22;9435;52.122;5.502;2023-04-30T11:04:23;17.20;99.90
18611;DHT22;9435;52.122;5.502;2023-04-30T11:07:06;17.40;99.90
18611;DHT22;9435;52.122;5.502;2023-04-30T11:09:35;17.10;99.90
18611;DHT22;9435;52.122;5.502;2023-04-30T11:12:03;17.30;99.90
18611;DHT22;9435;52.122;5.502;2023-04-30T11:14:31;16.80;99.90
18611;DHT22;9435;52.122;5.502;2023-04-30T11:16:59;16.90;99.90
18611;DHT22;9435;52.122;5.502;2023-04-30T11:19:27;17.10;99.90
18611;DHT22;9435;52.122;5.502;2023-04-30T11:22:20;17.10;99.90
18611;DHT22;9435;52.122;5.502;2023-04-30T11:25:01;16.80;99.90
18611;DHT22;9435;52.122;5.502;2023-04-30T11:27:30;16.50;99.90
18611;DHT22;9435;52.122;5.502;2023-04-30T11:29:58;16.60;99.90
18611;DHT22;9435;52.122;5.502;2023-04-30T11:32:32;16.80;99.90
18611;DHT22;9435;52.122;5.502;2023-04-30T11:34:59;16.90;99.90
18611;DHT22;9435;52.122;5.502;2023-04-30T11:37:31;16.80;99.90
18611;DHT22;9435;52.122;5.502;2023-04-30T11:40:00;16.90;99.90
18611;DHT22;9435;52.122;5.502;2023-04-30T11:42:28;16.70;99.90
18611;DHT22;9435;52.122;5.502;2023-04-30T11:45:03;17.00;99.90
18611;DHT22;9435;52.122;5.502;2023-04-30T11:47:41;16.90;99.90
18611;DHT22;9435;52.122;5.502;2023-04-30T11:50:10;17.00;99.90
18611;DHT22;9435;52.122;5.502;2023-04-30T11:52:39;17.10;99.90
18611;DHT22;9435;52.122;5.502;2023-04-30T11:55:11;17.00;99.90
18611;DHT22;9435;52.122;5.502;2023-04-30T11:57:40;16.90;99.90
18611;DHT22;9435;52.122;5.502;2023-04-30T12:00:13;17.60;99.90
18611;DHT22;9435;52.122;5.502;2023-04-30T12:02:41;18.10;99.90
18611;DHT22;9435;52.122;5.502;2023-04-30T12:05:14;18.50;99.90
18611;DHT22;9435;52.122;5.502;2023-04-30T12:07:47;18.80;99.90
18611;DHT22;9435;52.122;5.502;2023-04-30T12:10:14;19.10;99.90
18611;DHT22;9435;52.122;5.502;2023-04-30T12:12:42;18.80;99.90
18611;DHT22;9435;52.122;5.502;2023-04-30T12:15:11;18.50;99.90
18611;DHT22;9435;52.122;5.502;2023-04-30T12:17:38;18.80;99.90
18611;DHT22;9435;52.122;5.502;2023-04-30T12:20:07;18.40;99.90
18611;DHT22;9435;52.122;5.502;2023-04-30T12:22:34;18.30;99.90
18611;DHT22;9435;52.122;5.502;2023-04-30T12:25:07;18.70;99.90
18611;DHT22;9435;52.122;5.502;2023-04-30T12:27:36;18.20;99.90
18611;DHT22;9435;52.122;5.502;2023-04-30T12:30:05;17.90;99.90
18611;DHT22;9435;52.122;5.502;2023-04-30T12:32:37;17.80;99.90
18611;DHT22;9435;52.122;5.502;2023-04-30T12:35:05;18.30;99.90
18611;DHT22;9435;52.122;5.502;2023-04-30T12:37:33;18.50;99.90
18611;DHT22;9435;52.122;5.502;2023-04-30T12:40:00;19.00;99.90
18611;DHT22;9435;52.122;5.502;2023-04-30T12:42:32;18.40;99.90
18611;DHT22;9435;52.122;5.502;2023-04-30T12:45:00;18.50;99.90
18611;DHT22;9435;52.122;5.502;2023-04-30T12:47:29;18.00;99.90
18611;DHT22;9435;52.122;5.502;2023-04-30T12:49:56;17.80;99.90
18611;DHT22;9435;52.122;5.502;2023-04-30T12:52:24;18.10;99.90
18611;DHT22;9435;52.122;5.502;2023-04-30T12:54:52;18.50;99.90
18611;DHT22;9435;52.122;5.502;2023-04-30T12:57:20;19.00;99.90
18611;DHT22;9435;52.122;5.502;2023-04-30T12:59:58;18.40;99.90
18611;DHT22;9435;52.122;5.502;2023-04-30T13:02:27;18.20;99.90
18611;DHT22;9435;52.122;5.502;2023-04-30T13:04:56;17.90;99.90
18611;DHT22;9435;52.122;5.502;2023-04-30T13:07:24;17.70;99.90
18611;DHT22;9435;52.122;5.502;2023-04-30T13:09:51;17.80;99.90
18611;DHT22;9435;52.122;5.502;2023-04-30T13:12:19;17.80;99.90
18611;DHT22;9435;52.122;5.502;2023-04-30T13:14:46;18.30;99.90
18611;DHT22;9435;52.122;5.502;2023-04-30T13:17:14;18.20;99.90
18611;DHT22;9435;52.122;5.502;2023-04-30T13:19:42;18.50;99.90
18611;DHT22;9435;52.122;5.502;2023-04-30T13:22:09;18.40;99.90
18611;DHT22;9435;52.122;5.502;2023-04-30T13:24:36;18.50;99.90
18611;DHT22;9435;52.122;5.502;2023-04-30T13:27:03;18.80;99.90
18611;DHT22;9435;52.122;5.502;2023-04-30T13:29:30;19.20;99.90
18611;DHT22;9435;52.122;5.502;2023-04-30T13:31:57;19.40;99.90
18611;DHT22;9435;52.122;5.502;2023-04-30T13:34:26;18.40;99.90
18611;DHT22;9435;52.122;5.502;2023-04-30T13:36:53;18.90;99.90
18611;DHT22;9435;52.122;5.502;2023-04-30T13:39:20;19.20;99.90
18611;DHT22;9435;52.122;5.502;2023-04-30T13:41:47;19.00;99.90
18611;DHT22;9435;52.122;5.502;2023-04-30T13:44:15;19.00;99.90
18611;DHT22;9435;52.122;5.502;2023-04-30T13:46:42;18.20;99.90
18611;DHT22;9435;52.122;5.502;2023-04-30T13:49:09;18.60;99.90
18611;DHT22;9435;52.122;5.502;2023-04-30T13:51:38;18.50;99.90
18611;DHT22;9435;52.122;5.502;2023-04-30T13:54:05;18.30;99.90
18611;DHT22;9435;52.122;5.502;2023-04-30T13:56:32;18.30;99.90
18611;DHT22;9435;52.122;5.502;2023-04-30T13:58:59;18.50;99.90
18611;DHT22;9435;52.122;5.502;2023-04-30T14:01:27;18.50;99.90
18611;DHT22;9435;52.122;5.502;2023-04-30T14:03:55;18.70;99.90
18611;DHT22;9435;52.122;5.502;2023-04-30T14:06:22;19.20;99.90
18611;DHT22;9435;52.122;5.502;2023-04-30T14:08:51;18.80;99.90
18611;DHT22;9435;52.122;5.502;2023-04-30T14:11:18;19.00;99.90
18611;DHT22;9435;52.122;5.502;2023-04-30T14:13:45;19.50;99.90
18611;DHT22;9435;52.122;5.502;2023-04-30T14:16:12;19.50;99.90
18611;DHT22;9435;52.122;5.502;2023-04-30T14:18:39;18.60;99.90
18611;DHT22;9435;52.122;5.502;2023-04-30T14:21:08;18.70;99.90
18611;DHT22;9435;52.122;5.502;2023-04-30T14:23:38;17.90;99.90
18611;DHT22;9435;52.122;5.502;2023-04-30T14:26:07;18.10;99.90
18611;DHT22;9435;52.122;5.502;2023-04-30T14:28:34;18.40;99.90
18611;DHT22;9435;52.122;5.502;2023-04-30T14:31:01;18.80;99.90
18611;DHT22;9435;52.122;5.502;2023-04-30T14:33:29;18.80;99.90
18611;DHT22;9435;52.122;5.502;2023-04-30T14:35:59;18.90;99.90
18611;DHT22;9435;52.122;5.502;2023-04-30T14:38:29;18.50;99.90
18611;DHT22;9435;52.122;5.502;2023-04-30T14:40:56;18.50;99.90
18611;DHT22;9435;52.122;5.502;2023-04-30T14:43:25;18.40;99.90
18611;DHT22;9435;52.122;5.502;2023-04-30T14:45:54;18.30;99.90
18611;DHT22;9435;52.122;5.502;2023-04-30T14:48:31;18.20;99.90
18611;DHT22;9435;52.122;5.502;2023-04-30T14:50:59;17.90;99.90
18611;DHT22;9435;52.122;5.502;2023-04-30T14:53:26;17.70;99.90
18611;DHT22;9435;52.122;5.502;2023-04-30T14:55:53;17.80;99.90
18611;DHT22;9435;52.122;5.502;2023-04-30T14:58:20;17.80;99.90
18611;DHT22;9435;52.122;5.502;2023-04-30T15:00:49;18.10;99.90
18611;DHT22;9435;52.122;5.502;2023-04-30T15:03:16;18.10;99.90
18611;DHT22;9435;52.122;5.502;2023-04-30T15:05:43;17.90;99.90
18611;DHT22;9435;52.122;5.502;2023-04-30T15:08:10;18.20;99.90
18611;DHT22;9435;52.122;5.502;2023-04-30T15:10:37;18.50;99.90
18611;DHT22;9435;52.122;5.502;2023-04-30T15:13:04;18.80;99.90
18611;DHT22;9435;52.122;5.502;2023-04-30T15:15:31;18.90;99.90
18611;DHT22;9435;52.122;5.502;2023-04-30T15:18:00;18.70;99.90
18611;DHT22;9435;52.122;5.502;2023-04-30T15:20:28;18.40;99.90
18611;DHT22;9435;52.122;5.502;2023-04-30T15:22:55;18.70;99.90
18611;DHT22;9435;52.122;5.502;2023-04-30T15:25:22;18.60;99.90
18611;DHT22;9435;52.122;5.502;2023-04-30T15:27:49;18.90;99.90
18611;DHT22;9435;52.122;5.502;2023-04-30T15:30:17;18.70;99.90
18611;DHT22;9435;52.122;5.502;2023-04-30T15:32:46;18.80;99.90
18611;DHT22;9435;52.122;5.502;2023-04-30T15:35:14;18.60;99.90
18611;DHT22;9435;52.122;5.502;2023-04-30T15:37:41;18.50;99.90
18611;DHT22;9435;52.122;5.502;2023-04-30T15:40:09;18.30;99.90
18611;DHT22;9435;52.122;5.502;2023-04-30T15:42:39;18.60;99.90
18611;DHT22;9435;52.122;5.502;2023-04-30T15:45:07;18.70;99.90
18611;DHT22;9435;52.122;5.502;2023-04-30T15:47:35;18.90;99.90
18611;DHT22;9435;52.122;5.502;2023-04-30T15:50:05;18.70;99.90
18611;DHT22;9435;52.122;5.502;2023-04-30T15:52:34;18.20;99.90
18611;DHT22;9435;52.122;5.502;2023-04-30T15:55:01;18.50;99.90
18611;DHT22;9435;52.122;5.502;2023-04-30T15:57:28;18.30;99.90
18611;DHT22;9435;52.122;5.502;2023-04-30T15:59:55;18.00;99.90
18611;DHT22;9435;52.122;5.502;2023-04-30T16:02:22;17.90;99.90
18611;DHT22;9435;52.122;5.502;2023-04-30T16:04:49;17.80;99.90
18611;DHT22;9435;52.122;5.502;2023-04-30T16:07:16;17.90;99.90
18611;DHT22;9435;52.122;5.502;2023-04-30T16:09:45;17.90;99.90
18611;DHT22;9435;52.122;5.502;2023-04-30T16:12:13;17.90;99.90
18611;DHT22;9435;52.122;5.502;2023-04-30T16:14:40;17.80;99.90
18611;DHT22;9435;52.122;5.502;2023-04-30T16:17:08;18.00;99.90
18611;DHT22;9435;52.122;5.502;2023-04-30T16:19:35;17.70;99.90
18611;DHT22;9435;52.122;5.502;2023-04-30T16:22:02;17.60;99.90
18611;DHT22;9435;52.122;5.502;2023-04-30T16:24:29;17.80;99.90
18611;DHT22;9435;52.122;5.502;2023-04-30T16:26:57;17.90;99.90
18611;DHT22;9435;52.122;5.502;2023-04-30T16:29:25;18.00;99.90
18611;DHT22;9435;52.122;5.502;2023-04-30T16:31:53;18.10;99.90
18611;DHT22;9435;52.122;5.502;2023-04-30T16:34:20;17.90;99.90
18611;DHT22;9435;52.122;5.502;2023-04-30T16:36:47;17.90;99.90
18611;DHT22;9435;52.122;5.502;2023-04-30T16:39:14;18.00;99.90
18611;DHT22;9435;52.122;5.502;2023-04-30T16:41:42;18.00;99.90
18611;DHT22;9435;52.122;5.502;2023-04-30T16:44:10;17.60;99.90
18611;DHT22;9435;52.122;5.502;2023-04-30T16:46:37;17.50;99.90
18611;DHT22;9435;52.122;5.502;2023-04-30T16:49:05;17.40;99.90
18611;DHT22;9435;52.122;5.502;2023-04-30T16:51:31;17.50;99.90
18611;DHT22;9435;52.122;5.502;2023-04-30T16:53:58;17.60;99.90
18611;DHT22;9435;52.122;5.502;2023-04-30T16:56:26;17.80;99.90
18611;DHT22;9435;52.122;5.502;2023-04-30T16:58:53;17.80;99.90
18611;DHT22;9435;52.122;5.502;2023-04-30T17:01:21;17.80;99.90
18611;DHT22;9435;52.122;5.502;2023-04-30T17:03:48;17.70;99.90
18611;DHT22;9435;52.122;5.502;2023-04-30T17:06:16;17.60;99.90
18611;DHT22;9435;52.122;5.502;2023-04-30T17:08:45;17.50;99.90
18611;DHT22;9435;52.122;5.502;2023-04-30T17:11:12;17.40;99.90
18611;DHT22;9435;52.122;5.502;2023-04-30T17:13:43;17.40;99.90
18611;DHT22;9435;52.122;5.502;2023-04-30T17:16:10;17.30;99.90
18611;DHT22;9435;52.122;5.502;2023-04-30T17:18:39;17.20;99.90
18611;DHT22;9435;52.122;5.502;2023-04-30T17:21:06;17.20;99.90
18611;DHT22;9435;52.122;5.502;2023-04-30T17:23:33;17.00;99.90
18611;DHT22;9435;52.122;5.502;2023-04-30T17:26:00;17.00;99.90
18611;DHT22;9435;52.122;5.502;2023-04-30T17:28:28;17.00;99.90
18611;DHT22;9435;52.122;5.502;2023-04-30T17:30:57;16.80;99.90
18611;DHT22;9435;52.122;5.502;2023-04-30T17:33:27;16.80;99.90
18611;DHT22;9435;52.122;5.502;2023-04-30T17:35:56;16.80;99.90
18611;DHT22;9435;52.122;5.502;2023-04-30T17:38:24;16.80;99.90
18611;DHT22;9435;52.122;5.502;2023-04-30T17:40:51;16.70;99.90
18611;DHT22;9435;52.122;5.502;2023-04-30T17:43:18;16.60;99.90
18611;DHT22;9435;52.122;5.502;2023-04-30T17:45:46;16.60;99.90
18611;DHT22;9435;52.122;5.502;2023-04-30T17:48:15;16.60;99.90
18611;DHT22;9435;52.122;5.502;2023-04-30T17:50:42;16.70;99.90
18611;DHT22;9435;52.122;5.502;2023-04-30T17:53:11;16.60;99.90
18611;DHT22;9435;52.122;5.502;2023-04-30T17:55:38;16.40;99.90
18611;DHT22;9435;52.122;5.502;2023-04-30T17:58:07;16.30;99.90
18611;DHT22;9435;52.122;5.502;2023-04-30T18:00:37;16.20;99.90
18611;DHT22;9435;52.122;5.502;2023-04-30T18:03:04;16.20;99.90
18611;DHT22;9435;52.122;5.502;2023-04-30T18:05:32;16.00;99.90
18611;DHT22;9435;52.122;5.502;2023-04-30T18:07:59;16.10;99.90
18611;DHT22;9435;52.122;5.502;2023-04-30T18:10:27;16.00;99.90
18611;DHT22;9435;52.122;5.502;2023-04-30T18:12:57;16.10;99.90
18611;DHT22;9435;52.122;5.502;2023-04-30T18:15:25;16.10;99.90
18611;DHT22;9435;52.122;5.502;2023-04-30T18:17:52;16.00;99.90
18611;DHT22;9435;52.122;5.502;2023-04-30T18:20:19;15.90;99.90
18611;DHT22;9435;52.122;5.502;2023-04-30T18:22:46;15.90;99.90
18611;DHT22;9435;52.122;5.502;2023-04-30T18:25:14;15.90;99.90
18611;DHT22;9435;52.122;5.502;2023-04-30T18:27:43;15.70;99.90
18611;DHT22;9435;52.122;5.502;2023-04-30T18:30:10;15.70;99.90
18611;DHT22;9435;52.122;5.502;2023-04-30T18:32:38;15.60;99.90
18611;DHT22;9435;52.122;5.502;2023-04-30T18:35:06;15.60;99.90
18611;DHT22;9435;52.122;5.502;2023-04-30T18:37:33;15.60;99.90
18611;DHT22;9435;52.122;5.502;2023-04-30T18:40:00;15.50;99.90
18611;DHT22;9435;52.122;5.502;2023-04-30T18:42:29;15.50;99.90
18611;DHT22;9435;52.122;5.502;2023-04-30T18:44:59;15.50;99.90
18611;DHT22;9435;52.122;5.502;2023-04-30T18:47:26;15.50;99.90
18611;DHT22;9435;52.122;5.502;2023-04-30T18:49:55;15.40;99.90
18611;DHT22;9435;52.122;5.502;2023-04-30T18:52:22;15.40;99.90
18611;DHT22;9435;52.122;5.502;2023-04-30T18:54:49;15.30;99.90
18611;DHT22;9435;52.122;5.502;2023-04-30T18:57:16;15.20;99.90
18611;DHT22;9435;52.122;5.502;2023-04-30T18:59:44;15.00;99.90
18611;DHT22;9435;52.122;5.502;2023-04-30T19:02:12;14.80;99.90
18611;DHT22;9435;52.122;5.502;2023-04-30T19:04:40;14.70;99.90
18611;DHT22;9435;52.122;5.502;2023-04-30T19:07:07;14.60;99.90
18611;DHT22;9435;52.122;5.502;2023-04-30T19:09:34;14.50;99.90
18611;DHT22;9435;52.122;5.502;2023-04-30T19:12:02;14.10;99.90
18611;DHT22;9435;52.122;5.502;2023-04-30T19:14:29;14.20;99.90
18611;DHT22;9435;52.122;5.502;2023-04-30T19:16:56;14.20;99.90
18611;DHT22;9435;52.122;5.502;2023-04-30T19:19:26;14.30;99.90
18611;DHT22;9435;52.122;5.502;2023-04-30T19:21:53;14.20;99.90
18611;DHT22;9435;52.122;5.502;2023-04-30T19:24:20;14.20;99.90
18611;DHT22;9435;52.122;5.502;2023-04-30T19:26:48;14.10;99.90
18611;DHT22;9435;52.122;5.502;2023-04-30T19:29:16;14.10;99.90
18611;DHT22;9435;52.122;5.502;2023-04-30T19:31:43;14.10;99.90
18611;DHT22;9435;52.122;5.502;2023-04-30T19:34:10;14.00;99.90
18611;DHT22;9435;52.122;5.502;2023-04-30T19:36:40;14.00;99.90
18611;DHT22;9435;52.122;5.502;2023-04-30T19:39:09;13.90;99.90
18611;DHT22;9435;52.122;5.502;2023-04-30T19:41:36;13.90;99.90
18611;DHT22;9435;52.122;5.502;2023-04-30T19:44:03;13.90;99.90
18611;DHT22;9435;52.122;5.502;2023-04-30T19:46:32;13.80;99.90
18611;DHT22;9435;52.122;5.502;2023-04-30T19:48:59;13.80;99.90
18611;DHT22;9435;52.122;5.502;2023-04-30T19:51:26;13.70;99.90
18611;DHT22;9435;52.122;5.502;2023-04-30T19:53:54;13.60;99.90
18611;DHT22;9435;52.122;5.502;2023-04-30T19:56:23;13.60;99.90
18611;DHT22;9435;52.122;5.502;2023-04-30T19:58:50;13.60;99.90
18611;DHT22;9435;52.122;5.502;2023-04-30T20:01:19;13.50;99.90
18611;DHT22;9435;52.122;5.502;2023-04-30T20:03:46;13.50;99.90
18611;DHT22;9435;52.122;5.502;2023-04-30T20:06:13;13.40;99.90
18611;DHT22;9435;52.122;5.502;2023-04-30T20:08:40;13.40;99.90
18611;DHT22;9435;52.122;5.502;2023-04-30T20:11:08;13.40;99.90
18611;DHT22;9435;52.122;5.502;2023-04-30T20:13:35;13.30;99.90
18611;DHT22;9435;52.122;5.502;2023-04-30T20:16:03;13.20;99.90
18611;DHT22;9435;52.122;5.502;2023-04-30T20:18:30;13.00;99.90
18611;DHT22;9435;52.122;5.502;2023-04-30T20:20:57;12.80;99.90
18611;DHT22;9435;52.122;5.502;2023-04-30T20:23:24;12.90;99.90
18611;DHT22;9435;52.122;5.502;2023-04-30T20:25:51;12.80;99.90
18611;DHT22;9435;52.122;5.502;2023-04-30T20:28:21;12.80;99.90
18611;DHT22;9435;52.122;5.502;2023-04-30T20:30:48;12.80;99.90
18611;DHT22;9435;52.122;5.502;2023-04-30T20:33:16;12.80;99.90
18611;DHT22;9435;52.122;5.502;2023-04-30T20:35:43;12.80;99.90
18611;DHT22;9435;52.122;5.502;2023-04-30T20:38:12;12.70;99.90
18611;DHT22;9435;52.122;5.502;2023-04-30T20:40:40;12.60;99.90
18611;DHT22;9435;52.122;5.502;2023-04-30T20:43:08;12.60;99.90
18611;DHT22;9435;52.122;5.502;2023-04-30T20:45:38;12.60;99.90
18611;DHT22;9435;52.122;5.502;2023-04-30T20:48:07;12.60;99.90
18611;DHT22;9435;52.122;5.502;2023-04-30T20:50:34;12.60;99.90
18611;DHT22;9435;52.122;5.502;2023-04-30T20:53:01;12.50;99.90
18611;DHT22;9435;52.122;5.502;2023-04-30T20:55:29;12.50;99.90
18611;DHT22;9435;52.122;5.502;2023-04-30T20:57:56;12.40;99.90
18611;DHT22;9435;52.122;5.502;2023-04-30T21:00:23;12.40;99.90
18611;DHT22;9435;52.122;5.502;2023-04-30T21:02:51;12.30;99.90
18611;DHT22;9435;52.122;5.502;2023-04-30T21:05:19;12.30;99.90
18611;DHT22;9435;52.122;5.502;2023-04-30T21:07:46;12.30;99.90
18611;DHT22;9435;52.122;5.502;2023-04-30T21:10:13;12.20;99.90
18611;DHT22;9435;52.122;5.502;2023-04-30T21:12:40;12.10;99.90
18611;DHT22;9435;52.122;5.502;2023-04-30T21:15:08;11.80;99.90
18611;DHT22;9435;52.122;5.502;2023-04-30T21:17:35;11.60;99.90
18611;DHT22;9435;52.122;5.502;2023-04-30T21:20:04;11.60;99.90
18611;DHT22;9435;52.122;5.502;2023-04-30T21:22:31;11.70;99.90